KHRO/HRO METAR and TAF weather

Enter ICAO airport designator
Station Type Date Time Source
KHRO METAR 2021/08/04 19:53 UTC NOAA

KHRO 041953Z AUTO VRB03KT 10SM FEW041 26/16 A3012 RMK AO2 SLP186 T02610156


Station Type Date Time Source
KHRO Decoded METAR 2021/08/04 19:53 UTC NOAA

HARRISON BOONE COUNTY AIRPORT , AR, United States (KHRO) 36-16N 093-09W 417M
Aug 04, 2021 - 03:53 PM EDT / 2021.08.04 1953 UTC
Wind: Variable at 3 MPH (3 KT):0
Visibility: 10 mile(s):0
Sky conditions: mostly clear
Temperature: 79.0 F (26.1 C)
Dew Point: 60.1 F (15.6 C)
Relative Humidity: 52%
Pressure (altimeter): 30.12 in. Hg (1019 hPa)
ob: KHRO 041953Z AUTO VRB03KT 10SM FEW041 26/16 A3012 RMK AO2 SLP186 T02610156
cycle: 20

Station Type Date Time Source
KHRO TAF 2021/08/04 18:42 UTC NOAA

TAF KHRO 041740Z 0418/0518 13006KT P6SM SCT050
TEMPO 0418/0420 BKN045
FM050000 14003KT P6SM SCT250
FM051400 15007KT P6SM SCT100 BKN250

Example: see airport list